Time;durP1;ratioP1;P1;durP2;ratioP2;P2;SDS_P1;SDS_P2;PMS_P1;PMS_P2;Temp;Humidity;BMP_temperature;BMP_pressure;BME280_temperature;BME280_humidity;BME280_pressure;Samples;Min_cycle;Max_cycle;Signal;HPM_P1;HPM_P2
2021/03/01 00:00:02;;;;;;;59.85;28.05;;;5.40;84.70;;;;;;5034161;28;20032;-66
2021/03/01 00:02:27;;;;;;;54.70;27.35;;;5.30;85.10;;;;;;5016101;28;20029;-68
2021/03/01 00:04:53;;;;;;;54.58;25.95;;;5.20;85.50;;;;;;5034010;28;20032;-69
2021/03/01 00:07:19;;;;;;;42.58;22.67;;;5.20;85.60;;;;;;5033253;28;20025;-69
2021/03/01 00:09:44;;;;;;;54.53;26.90;;;5.20;85.20;;;;;;5032366;28;20105;-67
2021/03/01 00:12:13;;;;;;;42.25;22.60;;;5.30;85.00;;;;;;5034057;28;20029;-69
2021/03/01 00:14:38;;;;;;;44.70;22.45;;;5.30;84.60;;;;;;5028488;28;20052;-67
2021/03/01 00:17:06;;;;;;;44.78;24.45;;;5.20;84.60;;;;;;5012255;28;20537;-67
2021/03/01 00:19:32;;;;;;;49.83;25.15;;;5.20;84.90;;;;;;5032942;28;20542;-69
2021/03/01 00:21:58;;;;;;;41.67;21.52;;;5.20;84.90;;;;;;5033448;28;20108;-67
2021/03/01 00:24:23;;;;;;;51.50;23.75;;;5.30;84.60;;;;;;5033399;28;20025;-68
2021/03/01 00:26:51;;;;;;;40.28;19.73;;;5.40;84.00;;;;;;5015097;28;20376;-68
2021/03/01 00:29:16;;;;;;;46.78;23.33;;;5.40;84.00;;;;;;5032979;28;20120;-67
2021/03/01 00:31:42;;;;;;;40.45;23.50;;;5.30;84.00;;;;;;5033467;28;20092;-68
2021/03/01 00:34:07;;;;;;;38.58;20.95;;;5.30;84.10;;;;;;5015690;28;20045;-68
2021/03/01 00:36:33;;;;;;;38.17;21.80;;;5.20;84.00;;;;;;5014568;28;20105;-68
2021/03/01 00:39:00;;;;;;;39.58;18.40;;;5.10;84.40;;;;;;5015681;28;20661;-68
2021/03/01 00:41:25;;;;;;;34.17;18.77;;;5.10;84.30;;;;;;5032868;28;20029;-69
2021/03/01 00:43:51;;;;;;;35.10;19.20;;;5.10;84.40;;;;;;5032726;28;20452;-67
2021/03/01 00:46:17;;;;;;;33.88;18.45;;;5.20;84.40;;;;;;5032108;28;20039;-68
2021/03/01 00:48:42;;;;;;;35.97;19.02;;;5.10;84.20;;;;;;5032864;28;20028;-68
2021/03/01 00:51:08;;;;;;;37.50;20.88;;;5.10;84.30;;;;;;5032756;28;20025;-70
2021/03/01 00:53:33;;;;;;;38.97;21.80;;;5.00;84.60;;;;;;5032590;28;20037;-66
2021/03/01 00:55:59;;;;;;;37.05;20.10;;;5.00;84.60;;;;;;5032653;28;20119;-69
2021/03/01 00:58:24;;;;;;;38.10;21.65;;;5.10;84.50;;;;;;5031694;28;20030;-66
2021/03/01 01:00:51;;;;;;;27.67;17.50;;;5.10;84.40;;;;;;5014874;28;20052;-70
2021/03/01 01:03:19;;;;;;;33.45;19.73;;;5.00;84.30;;;;;;5032402;28;20495;-68
2021/03/01 01:05:45;;;;;;;33.28;19.05;;;5.00;84.50;;;;;;5032394;28;20034;-70
2021/03/01 01:08:10;;;;;;;42.45;23.13;;;4.90;85.30;;;;;;5031776;28;20040;-67
2021/03/01 01:10:37;;;;;;;31.17;18.05;;;4.80;85.80;;;;;;5032978;28;20033;-69
2021/03/01 01:13:04;;;;;;;36.40;20.05;;;4.80;85.70;;;;;;5032414;28;20083;-68
2021/03/01 01:15:30;;;;;;;35.17;19.95;;;4.70;86.00;;;;;;5032197;28;20040;-68
2021/03/01 01:17:55;;;;;;;35.17;18.80;;;4.70;86.00;;;;;;5031830;28;20400;-69
2021/03/01 01:20:21;;;;;;;32.60;17.92;;;4.50;86.30;;;;;;5032197;28;20034;-69
2021/03/01 01:22:47;;;;;;;27.52;15.88;;;4.60;86.50;;;;;;5032179;28;20029;-69
2021/03/01 01:25:15;;;;;;;27.55;14.88;;;4.60;86.30;;;;;;5031984;28;20495;-70
2021/03/01 01:27:41;;;;;;;31.95;16.85;;;4.50;86.60;;;;;;5031282;28;20038;-69
2021/03/01 01:30:09;;;;;;;32.50;18.13;;;4.50;86.60;;;;;;5031774;28;20479;-69
2021/03/01 01:32:36;;;;;;;38.67;20.70;;;4.50;87.00;;;;;;5032232;28;20570;-69
2021/03/01 01:35:05;;;;;;;31.30;15.70;;;4.60;87.10;;;;;;5031967;28;20071;-70
2021/03/01 01:37:31;;;;;;;22.23;14.38;;;4.60;86.40;;;;;;5031254;28;20017;-69
2021/03/01 01:39:56;;;;;;;27.10;15.88;;;4.60;86.60;;;;;;5013975;28;20051;-69
2021/03/01 01:42:22;;;;;;;26.77;15.27;;;4.60;86.60;;;;;;5013948;28;20111;-68
2021/03/01 01:44:48;;;;;;;25.20;15.93;;;4.40;86.70;;;;;;5031737;28;20104;-70
2021/03/01 01:47:13;;;;;;;24.77;16.33;;;4.40;87.10;;;;;;5031010;28;20040;-69
2021/03/01 01:49:38;;;;;;;23.73;14.23;;;4.30;87.30;;;;;;5013993;28;20032;-69
2021/03/01 01:52:04;;;;;;;24.65;14.80;;;4.30;86.80;;;;;;5031505;28;20032;-69
2021/03/01 01:54:30;;;;;;;19.85;13.93;;;4.30;86.40;;;;;;5031430;28;20022;-68
2021/03/01 01:56:55;;;;;;;21.98;13.90;;;4.20;86.60;;;;;;5030885;28;20021;-68
2021/03/01 01:59:21;;;;;;;24.70;14.65;;;4.10;86.90;;;;;;5032350;28;20117;-67
2021/03/01 02:01:48;;;;;;;28.55;15.80;;;4.10;87.40;;;;;;5014108;28;20030;-69
2021/03/01 02:04:35;;;;;;;22.73;14.48;;;4.20;87.30;;;;;;5014029;28;20025;-68
2021/03/01 02:07:16;;;;;;;21.95;13.23;;;4.20;87.30;;;;;;5030704;28;20491;-68
2021/03/01 02:10:03;;;;;;;21.85;12.85;;;4.10;87.60;;;;;;5031462;28;20044;-68
2021/03/01 02:12:55;;;;;;;21.13;12.65;;;4.10;87.50;;;;;;5031367;28;20463;-69
2021/03/01 02:15:48;;;;;;;26.33;13.13;;;4.10;87.50;;;;;;5026522;28;20453;-68
2021/03/01 02:18:13;;;;;;;25.27;13.05;;;4.00;87.70;;;;;;5013249;28;20033;-67
2021/03/01 02:20:47;;;;;;;20.73;12.32;;;4.00;87.60;;;;;;5013846;28;20033;-68
2021/03/01 02:23:15;;;;;;;24.27;13.38;;;4.00;88.30;;;;;;5031231;28;20379;-69
2021/03/01 02:25:47;;;;;;;26.27;14.93;;;3.90;88.30;;;;;;5032254;28;20367;-68
2021/03/01 02:28:14;;;;;;;23.67;13.23;;;4.00;88.60;;;;;;5012772;28;20060;-69
2021/03/01 02:30:46;;;;;;;17.55;11.85;;;4.00;88.40;;;;;;5013579;28;20611;-68
2021/03/01 02:33:20;;;;;;;21.85;12.63;;;4.00;87.60;;;;;;5031269;28;20025;-69
2021/03/01 02:35:54;;;;;;;20.35;11.25;;;4.00;87.20;;;;;;5013648;28;20026;-68
2021/03/01 02:38:26;;;;;;;19.33;11.48;;;4.00;87.50;;;;;;5012705;28;20033;-69
2021/03/01 02:40:56;;;;;;;23.52;12.63;;;3.90;87.70;;;;;;5032583;28;20447;-69
2021/03/01 02:43:25;;;;;;;18.55;11.05;;;3.80;87.90;;;;;;5035209;28;20109;-68
2021/03/01 02:45:51;;;;;;;19.00;11.70;;;3.90;87.50;;;;;;5035566;28;20033;-70
2021/03/01 02:48:18;;;;;;;22.98;12.35;;;3.90;87.90;;;;;;5017144;28;20036;-69
2021/03/01 02:50:46;;;;;;;20.92;12.23;;;3.90;88.10;;;;;;5035266;28;20025;-68
2021/03/01 02:53:14;;;;;;;18.30;11.65;;;4.00;87.80;;;;;;5035224;28;20021;-69
2021/03/01 02:55:46;;;;;;;25.30;13.75;;;3.90;87.40;;;;;;5035361;28;20021;-69
2021/03/01 02:58:13;;;;;;;20.27;11.60;;;3.90;87.50;;;;;;5034603;28;20025;-68
2021/03/01 03:00:40;;;;;;;19.67;11.85;;;3.90;87.00;;;;;;5035076;28;20021;-69
2021/03/01 03:03:08;;;;;;;28.23;15.15;;;3.80;87.30;;;;;;5034714;28;20488;-70
2021/03/01 03:05:34;;;;;;;21.02;11.55;;;3.70;87.60;;;;;;5035152;28;20021;-69
2021/03/01 03:08:01;;;;;;;23.70;12.30;;;3.70;88.00;;;;;;5034752;28;20387;-68
2021/03/01 03:10:28;;;;;;;19.75;11.27;;;3.70;88.40;;;;;;5035000;28;20049;-69
2021/03/01 03:12:55;;;;;;;19.80;11.43;;;3.70;88.70;;;;;;5034950;28;20391;-71
2021/03/01 03:15:21;;;;;;;22.77;11.43;;;3.70;88.00;;;;;;5034786;28;20075;-67
2021/03/01 03:17:50;;;;;;;19.05;11.80;;;3.80;87.70;;;;;;5034161;28;20017;-69
2021/03/01 03:20:16;;;;;;;18.92;10.95;;;3.80;87.90;;;;;;5034529;28;20017;-69
2021/03/01 03:22:41;;;;;;;20.75;11.40;;;3.80;87.80;;;;;;5034550;28;20518;-68
2021/03/01 03:25:09;;;;;;;21.02;11.93;;;3.80;87.50;;;;;;5034341;28;20040;-70
2021/03/01 03:27:34;;;;;;;21.73;10.95;;;3.80;87.40;;;;;;5033801;28;20029;-69
2021/03/01 03:30:00;;;;;;;18.80;10.10;;;3.80;87.40;;;;;;5034139;28;20033;-69
2021/03/01 03:32:27;;;;;;;22.20;11.35;;;3.80;87.30;;;;;;5034197;28;20535;-70
2021/03/01 03:34:53;;;;;;;27.00;13.82;;;3.70;87.70;;;;;;5034220;28;20025;-69
2021/03/01 03:37:27;;;;;;;21.63;11.88;;;3.70;87.60;;;;;;5016036;28;20112;-69
2021/03/01 03:39:56;;;;;;;20.40;10.23;;;3.60;88.10;;;;;;5034133;28;20017;-69
2021/03/01 03:42:26;;;;;;;20.63;11.32;;;3.60;88.20;;;;;;5033923;28;20025;-69
2021/03/01 03:44:54;;;;;;;16.45;10.02;;;3.60;88.40;;;;;;5016159;28;20403;-69
2021/03/01 03:47:22;;;;;;;20.17;11.60;;;3.70;87.80;;;;;;5033376;28;20028;-69
2021/03/01 03:49:49;;;;;;;18.48;10.50;;;3.70;88.00;;;;;;5034061;28;20503;-69
2021/03/01 03:52:16;;;;;;;14.98;9.80;;;3.60;88.30;;;;;;5015504;28;20029;-71
2021/03/01 03:54:47;;;;;;;20.60;10.73;;;3.50;87.80;;;;;;5033655;28;20017;-68
2021/03/01 03:57:16;;;;;;;;;;;3.60;88.00;;;;;;5015827;28;20029;-70
2021/03/01 03:59:44;;;;;;;18.25;9.38;;;3.50;88.10;;;;;;5033765;28;19911;-70
2021/03/01 04:02:13;;;;;;;17.60;10.05;;;3.50;88.40;;;;;;5033807;28;20119;-68
2021/03/01 04:04:39;;;;;;;16.65;9.98;;;3.60;88.40;;;;;;5033888;28;20037;-67
2021/03/01 04:07:06;;;;;;;18.45;10.50;;;3.50;88.20;;;;;;5033039;28;20029;-68
2021/03/01 04:09:33;;;;;;;18.70;10.10;;;3.50;88.10;;;;;;5033588;28;20064;-68
2021/03/01 04:12:01;;;;;;;20.02;10.88;;;3.50;88.50;;;;;;5033594;28;20028;-68
2021/03/01 04:14:29;;;;;;;22.73;11.15;;;3.40;88.80;;;;;;5016104;28;20029;-68
2021/03/01 04:17:00;;;;;;;22.25;11.02;;;3.40;89.10;;;;;;5031729;28;20495;-69
2021/03/01 04:19:29;;;;;;;620.90;377.08;;;3.40;89.20;;;;;;5033633;28;20084;-69
2021/03/01 04:21:57;;;;;;;66.85;34.08;;;3.40;89.40;;;;;;5033378;28;20040;-68
2021/03/01 04:24:24;;;;;;;22.23;10.57;;;3.40;89.40;;;;;;5033407;28;20117;-68
2021/03/01 04:26:51;;;;;;;24.60;12.10;;;3.50;89.40;;;;;;5032358;28;20034;-71
2021/03/01 04:29:18;;;;;;;17.65;10.00;;;3.50;89.40;;;;;;5033344;28;20031;-68
2021/03/01 04:31:47;;;;;;;21.77;10.75;;;3.40;89.20;;;;;;5033203;28;20029;-69
2021/03/01 04:34:13;;;;;;;126.53;71.93;;;3.40;89.50;;;;;;5033337;28;20085;-69
2021/03/01 04:36:40;;;;;;;152.88;80.60;;;3.40;89.30;;;;;;5032608;28;20025;-69
2021/03/01 04:39:06;;;;;;;24.15;12.18;;;3.40;89.50;;;;;;5032978;28;20033;-69
2021/03/01 04:41:37;;;;;;;20.65;11.50;;;3.50;89.60;;;;;;5033406;28;20083;-69
2021/03/01 04:44:04;;;;;;;18.77;10.60;;;3.50;89.50;;;;;;5033105;28;20045;-68
2021/03/01 04:46:30;;;;;;;21.55;10.88;;;3.50;89.50;;;;;;5031910;28;20036;-69
2021/03/01 04:48:58;;;;;;;21.65;11.02;;;3.50;89.20;;;;;;5015171;28;20036;-68
2021/03/01 04:51:25;;;;;;;20.55;11.18;;;3.60;89.10;;;;;;5012133;28;20030;-70
2021/03/01 04:53:53;;;;;;;19.65;10.35;;;3.50;89.30;;;;;;5032632;28;20052;-68
2021/03/01 04:56:19;;;;;;;18.45;10.52;;;3.50;89.20;;;;;;5031836;28;20112;-69
2021/03/01 04:58:45;;;;;;;16.95;10.20;;;3.50;89.10;;;;;;5032524;28;20113;-68
2021/03/01 05:01:11;;;;;;;18.20;10.85;;;3.50;89.30;;;;;;5032483;28;20042;-68
2021/03/01 05:03:38;;;;;;;22.05;11.55;;;3.50;89.10;;;;;;5032107;28;20475;-66
2021/03/01 05:06:04;;;;;;;21.08;10.98;;;3.50;89.30;;;;;;5013706;28;20514;-69
2021/03/01 05:08:32;;;;;;;19.20;10.82;;;3.50;89.20;;;;;;5011533;28;20029;-68
2021/03/01 05:11:01;;;;;;;22.05;12.15;;;3.50;89.50;;;;;;5012862;28;20100;-69
2021/03/01 05:13:27;;;;;;;21.88;12.15;;;3.50;89.10;;;;;;5012499;28;20072;-68
2021/03/01 05:15:52;;;;;;;21.67;12.10;;;3.50;89.50;;;;;;5012673;28;20025;-67
2021/03/01 05:18:18;;;;;;;21.67;13.05;;;3.50;88.80;;;;;;5011672;28;20048;-68
2021/03/01 05:20:44;;;;;;;24.95;13.23;;;3.50;88.80;;;;;;5012534;28;20267;-68
2021/03/01 05:23:09;;;;;;;22.77;12.40;;;3.50;89.00;;;;;;5023022;28;20022;-69
2021/03/01 05:25:35;;;;;;;25.58;13.30;;;3.50;88.40;;;;;;5031956;28;20442;-69
2021/03/01 05:28:00;;;;;;;21.65;12.23;;;3.40;88.90;;;;;;5013763;28;20426;-71
2021/03/01 05:30:29;;;;;;;19.52;11.18;;;3.50;88.70;;;;;;5032021;28;20057;-68
2021/03/01 05:32:56;;;;;;;21.70;12.43;;;3.40;89.10;;;;;;5032262;28;20091;-68
2021/03/01 05:35:22;;;;;;;25.00;13.70;;;3.50;89.20;;;;;;5031743;28;20021;-68
2021/03/01 05:37:48;;;;;;;23.15;12.38;;;3.50;89.40;;;;;;5031337;28;20402;-68
2021/03/01 05:40:13;;;;;;;21.83;12.18;;;3.40;89.40;;;;;;5031898;28;20033;-70
2021/03/01 05:42:42;;;;;;;23.50;12.88;;;3.50;89.30;;;;;;5031934;28;20032;-68
2021/03/01 05:45:09;;;;;;;20.85;12.43;;;3.50;89.20;;;;;;5014131;28;20036;-67
2021/03/01 05:47:36;;;;;;;18.95;11.18;;;3.40;88.50;;;;;;5031105;28;20041;-71
2021/03/01 05:50:06;;;;;;;17.45;11.80;;;3.40;88.60;;;;;;5013926;28;20081;-69
2021/03/01 05:52:34;;;;;;;19.38;11.75;;;3.50;88.50;;;;;;5014158;28;20033;-68
2021/03/01 05:55:04;;;;;;;19.58;11.77;;;3.40;87.80;;;;;;5031584;28;20387;-70
2021/03/01 05:57:32;;;;;;;19.42;11.13;;;3.40;88.00;;;;;;5030173;28;20075;-70
2021/03/01 05:59:59;;;;;;;14.45;9.25;;;3.40;88.50;;;;;;5012887;28;20033;-67
2021/03/01 06:02:25;;;;;;;16.23;10.00;;;3.40;88.40;;;;;;5020222;28;20079;-68
2021/03/01 06:04:52;;;;;;;17.70;10.43;;;3.30;87.00;;;;;;5031413;28;20120;-68
2021/03/01 06:07:20;;;;;;;15.82;9.65;;;3.10;86.90;;;;;;5030841;28;20044;-70
2021/03/01 06:09:46;;;;;;;15.65;9.45;;;3.10;87.00;;;;;;5031560;28;20104;-67
2021/03/01 06:12:11;;;;;;;17.25;9.95;;;3.10;87.20;;;;;;5031324;28;20670;-69
2021/03/01 06:14:37;;;;;;;17.33;9.80;;;3.10;87.00;;;;;;5030692;28;20029;-68
2021/03/01 06:17:17;;;;;;;14.75;9.32;;;3.00;87.10;;;;;;5020946;28;20056;-69
2021/03/01 06:19:48;;;;;;;17.17;9.77;;;3.00;86.90;;;;;;4993651;28;20161;-71
2021/03/01 06:22:14;;;;;;;19.45;11.57;;;3.00;87.10;;;;;;4996730;28;20079;-68
2021/03/01 06:24:40;;;;;;;30.55;13.63;;;3.00;87.90;;;;;;5031157;28;20441;-67
2021/03/01 06:27:09;;;;;;;21.90;12.35;;;3.00;88.00;;;;;;5030512;28;20037;-67
2021/03/01 06:30:03;;;;;;;24.55;12.73;;;3.00;88.40;;;;;;5031188;28;20029;-67
2021/03/01 06:32:29;;;;;;;22.50;13.30;;;3.10;88.70;;;;;;5012765;28;20110;-68
2021/03/01 06:34:54;;;;;;;22.17;13.00;;;3.20;88.50;;;;;;5013213;28;20113;-69
2021/03/01 06:37:20;;;;;;;22.67;12.68;;;3.30;88.00;;;;;;5029971;28;20387;-67
2021/03/01 06:39:51;;;;;;;22.42;12.95;;;3.40;87.70;;;;;;5030034;28;20063;-69
2021/03/01 06:42:17;;;;;;;18.75;11.52;;;3.30;87.00;;;;;;5030766;28;20399;-69
2021/03/01 06:44:48;;;;;;;23.33;11.60;;;3.30;87.20;;;;;;5012885;28;20140;-69
2021/03/01 06:47:14;;;;;;;22.50;11.85;;;3.40;87.20;;;;;;5029718;28;20026;-68
2021/03/01 06:49:42;;;;;;;22.38;12.20;;;3.50;87.40;;;;;;5012810;28;20034;-67
2021/03/01 06:52:08;;;;;;;23.75;12.65;;;3.50;86.90;;;;;;5030744;28;20068;-68
2021/03/01 06:54:35;;;;;;;22.98;12.18;;;3.70;86.60;;;;;;5013005;28;20030;-68
2021/03/01 06:57:00;;;;;;;19.52;11.48;;;3.70;85.40;;;;;;5030012;28;20503;-68
2021/03/01 06:59:26;;;;;;;23.85;12.50;;;3.70;85.50;;;;;;5030950;28;20037;-67
2021/03/01 07:01:56;;;;;;;21.10;12.23;;;3.60;85.80;;;;;;5030592;28;20422;-70
2021/03/01 07:04:24;;;;;;;21.02;11.60;;;3.70;85.80;;;;;;5030724;28;20053;-66
2021/03/01 07:06:52;;;;;;;19.33;11.35;;;3.70;84.90;;;;;;5012292;28;20040;-67
2021/03/01 07:09:20;;;;;;;16.10;10.40;;;3.80;85.20;;;;;;5030658;28;20033;-69
2021/03/01 07:11:46;;;;;;;18.95;10.38;;;3.80;84.40;;;;;;5030323;28;20018;-68
2021/03/01 07:14:14;;;;;;;18.85;11.57;;;3.60;85.00;;;;;;5030310;28;20062;-68
2021/03/01 07:16:49;;;;;;;21.48;12.40;;;3.70;85.20;;;;;;5011045;28;20483;-70
2021/03/01 07:19:19;;;;;;;24.95;13.88;;;3.50;85.40;;;;;;5023034;28;20385;-70
2021/03/01 07:21:50;;;;;;;24.55;13.02;;;3.50;85.50;;;;;;5010445;28;20041;-69
2021/03/01 07:24:18;;;;;;;25.90;13.48;;;3.60;85.80;;;;;;5030414;28;20037;-67
2021/03/01 07:26:45;;;;;;;22.67;13.48;;;3.80;85.50;;;;;;5030170;28;20450;-68
2021/03/01 07:29:16;;;;;;;24.30;14.27;;;3.90;84.70;;;;;;5033901;28;20037;-65
2021/03/01 07:31:47;;;;;;;22.75;14.10;;;4.00;84.10;;;;;;5033979;28;20021;-69
2021/03/01 07:34:13;;;;;;;23.48;14.23;;;4.00;83.60;;;;;;5033705;28;20038;-67
2021/03/01 07:36:38;;;;;;;25.52;13.98;;;3.90;83.90;;;;;;5015252;28;20075;-69
2021/03/01 07:39:07;;;;;;;22.52;13.40;;;3.90;83.40;;;;;;5034085;28;20543;-69
2021/03/01 07:41:34;;;;;;;23.48;13.27;;;3.90;83.60;;;;;;5015851;28;20080;-69
2021/03/01 07:44:00;;;;;;;22.17;12.75;;;3.90;84.00;;;;;;5034011;28;20109;-68
2021/03/01 07:46:31;;;;;;;19.92;12.98;;;4.00;83.00;;;;;;5032856;28;20022;-68
2021/03/01 07:48:57;;;;;;;21.75;13.40;;;3.90;83.70;;;;;;5033648;28;20026;-67
2021/03/01 07:51:45;;;;;;;22.90;13.60;;;3.80;82.80;;;;;;5015527;28;20025;-69
2021/03/01 07:54:12;;;;;;;21.27;13.13;;;3.70;83.60;;;;;;5033796;28;20056;-67
2021/03/01 07:56:38;;;;;;;22.83;14.95;;;3.80;83.30;;;;;;5032664;28;20029;-68
2021/03/01 07:59:09;;;;;;;25.02;14.43;;;3.80;83.70;;;;;;5033765;28;20105;-69
2021/03/01 08:01:35;;;;;;;27.40;15.85;;;3.70;83.90;;;;;;5015945;28;20025;-70
2021/03/01 08:04:01;;;;;;;28.02;16.63;;;3.50;83.90;;;;;;5015946;28;20120;-69
2021/03/01 08:06:58;;;;;;;28.83;17.40;;;3.50;84.50;;;;;;5032637;28;20124;-71
2021/03/01 08:09:39;;;;;;;27.10;16.20;;;3.50;84.10;;;;;;5033297;28;20117;-68
2021/03/01 08:12:05;;;;;;;24.98;14.77;;;3.60;84.10;;;;;;5033440;28;20017;-68
2021/03/01 08:14:49;;;;;;;27.45;15.52;;;3.70;83.80;;;;;;5033221;28;20487;-67
2021/03/01 08:17:26;;;;;;;27.48;16.25;;;3.80;83.20;;;;;;5032516;28;20028;-67
2021/03/01 08:19:56;;;;;;;22.45;14.00;;;3.90;83.50;;;;;;5028300;28;20034;-67
2021/03/01 08:22:22;;;;;;;26.50;16.25;;;4.10;82.80;;;;;;5017920;28;20029;-66
2021/03/01 08:27:39;;;;;;;23.83;16.13;;;4.30;81.90;;;;;;5049632;28;20083;-70
2021/03/01 08:30:25;;;;;;;26.10;15.05;;;4.40;81.70;;;;;;5035677;28;20029;-70
2021/03/01 08:33:08;;;;;;;22.33;14.52;;;4.40;81.40;;;;;;5058840;28;20041;-70
2021/03/01 08:35:44;;;;;;;22.58;13.43;;;4.50;80.80;;;;;;5072797;28;20020;-69
2021/03/01 08:38:11;;;;;;;25.70;15.50;;;4.60;80.20;;;;;;5085270;28;20024;-69
2021/03/01 08:40:53;;;;;;;23.98;14.15;;;4.70;79.70;;;;;;5060626;28;20032;-76
2021/03/01 08:43:40;;;;;;;21.08;14.70;;;4.80;79.40;;;;;;5055213;28;20087;-68
2021/03/01 08:46:15;;;;;;;19.63;13.95;;;4.90;79.60;;;;;;5072751;28;20481;-69
2021/03/01 08:48:45;;;;;;;18.83;13.98;;;4.90;79.20;;;;;;5072943;28;20078;-67
2021/03/01 08:51:11;;;;;;;19.10;12.95;;;5.00;79.00;;;;;;5073061;28;20020;-68
2021/03/01 08:53:38;;;;;;;20.98;12.98;;;4.80;78.90;;;;;;5054542;28;20035;-70
2021/03/01 08:56:04;;;;;;;21.67;13.27;;;4.50;79.80;;;;;;5054050;28;20027;-67
2021/03/01 08:58:35;;;;;;;21.00;13.30;;;4.60;80.20;;;;;;5054546;28;20024;-69
2021/03/01 09:01:05;;;;;;;23.17;14.17;;;4.60;79.70;;;;;;5055155;28;20024;-68
2021/03/01 09:03:33;;;;;;;22.55;13.32;;;4.30;79.90;;;;;;5072963;28;20258;-70
2021/03/01 09:06:09;;;;;;;21.20;13.88;;;4.30;80.30;;;;;;5072413;28;20017;-69
2021/03/01 09:08:44;;;;;;;22.05;14.40;;;4.10;80.40;;;;;;5054688;28;20103;-68
2021/03/01 09:11:19;;;;;;;20.50;13.75;;;3.80;81.60;;;;;;5054680;28;20021;-68
2021/03/01 09:13:48;;;;;;;20.48;13.27;;;3.80;82.30;;;;;;5072633;28;20024;-68
2021/03/01 09:16:16;;;;;;;21.45;13.30;;;4.00;82.00;;;;;;5071666;28;20027;-69
2021/03/01 09:18:44;;;;;;;19.33;12.48;;;4.10;81.30;;;;;;5072187;28;20100;-69
2021/03/01 09:21:15;;;;;;;19.63;12.65;;;4.20;81.10;;;;;;5054565;28;20082;-69
2021/03/01 09:23:45;;;;;;;18.70;11.98;;;4.30;81.00;;;;;;5088025;28;20047;-69
2021/03/01 09:26:28;;;;;;;24.02;12.45;;;4.50;79.90;;;;;;5091517;28;20444;-68
2021/03/01 09:29:12;;;;;;;19.52;12.52;;;4.30;79.80;;;;;;5074368;28;20036;-69
2021/03/01 09:31:49;;;;;;;19.33;12.68;;;4.00;80.70;;;;;;5092431;28;20015;-68
2021/03/01 09:34:16;;;;;;;18.20;11.90;;;4.10;81.30;;;;;;5092448;28;20051;-69
2021/03/01 09:36:47;;;;;;;19.52;12.38;;;4.40;80.60;;;;;;5073070;28;20024;-68
2021/03/01 09:39:17;;;;;;;18.17;11.75;;;4.80;79.60;;;;;;5092359;28;20500;-69
2021/03/01 09:41:42;;;;;;;18.88;12.55;;;5.00;77.90;;;;;;5092500;28;20040;-70
2021/03/01 09:44:08;;;;;;;18.77;12.20;;;5.00;77.80;;;;;;5092468;28;20081;-70
2021/03/01 09:46:35;;;;;;;18.33;12.02;;;5.10;77.30;;;;;;5091249;28;20075;-69
2021/03/01 09:49:03;;;;;;;17.02;11.25;;;5.20;76.70;;;;;;5092175;28;20404;-69
2021/03/01 09:51:30;;;;;;;19.88;11.90;;;5.30;76.60;;;;;;5092028;28;20017;-68
2021/03/01 09:54:05;;;;;;;18.42;11.77;;;5.30;76.00;;;;;;5092506;28;20430;-69
2021/03/01 09:56:48;;;;;;;19.13;12.25;;;5.30;76.10;;;;;;5090995;28;20024;-69
2021/03/01 09:59:34;;;;;;;18.45;12.90;;;5.00;76.90;;;;;;5091990;28;20028;-69
2021/03/01 10:02:16;;;;;;;20.75;13.57;;;4.90;78.20;;;;;;5089559;28;20485;-68
2021/03/01 10:04:43;;;;;;;19.35;12.35;;;4.50;78.20;;;;;;5072733;28;20031;-68
2021/03/01 10:07:25;;;;;;;19.45;13.00;;;4.60;78.80;;;;;;5071062;28;20534;-68
2021/03/01 10:09:52;;;;;;;21.80;13.23;;;4.40;78.60;;;;;;5069826;28;20107;-67
2021/03/01 10:12:19;;;;;;;26.80;13.27;;;4.30;79.20;;;;;;5071221;28;20028;-68
2021/03/01 10:14:45;;;;;;;25.55;15.40;;;4.50;79.40;;;;;;5071502;28;20381;-68
2021/03/01 10:17:19;;;;;;;30.77;16.65;;;4.80;78.60;;;;;;5049896;28;20024;-69
2021/03/01 10:19:45;;;;;;;17.40;12.50;;;5.20;77.90;;;;;;5051671;28;20041;-68
2021/03/01 10:22:11;;;;;;;19.40;12.68;;;5.10;76.10;;;;;;5079368;28;20020;-68
2021/03/01 10:24:48;;;;;;;19.38;12.50;;;4.70;77.40;;;;;;5085624;28;20086;-68
2021/03/01 10:27:18;;;;;;;21.15;12.98;;;4.40;78.70;;;;;;5037313;28;20071;-69
2021/03/01 10:29:48;;;;;;;23.65;14.27;;;4.60;78.80;;;;;;5051232;28;20052;-69
2021/03/01 10:32:25;;;;;;;21.67;12.93;;;4.90;78.70;;;;;;5033481;28;20071;-70
2021/03/01 10:34:52;;;;;;;18.65;12.23;;;5.00;77.60;;;;;;5051451;28;20024;-69
2021/03/01 10:37:26;;;;;;;22.02;13.45;;;5.20;76.10;;;;;;5050348;28;20032;-69
2021/03/01 10:39:53;;;;;;;16.83;11.27;;;5.40;76.50;;;;;;5033103;28;20032;-70
2021/03/01 10:42:24;;;;;;;19.77;11.68;;;5.60;76.40;;;;;;5051020;28;20025;-69
2021/03/01 10:44:54;;;;;;;17.95;12.07;;;5.80;74.80;;;;;;5051168;28;20021;-69
2021/03/01 10:47:22;;;;;;;18.10;11.98;;;5.90;74.30;;;;;;5032664;28;20043;-69
2021/03/01 10:49:50;;;;;;;14.75;10.80;;;6.00;74.00;;;;;;5050980;28;20032;-68
2021/03/01 10:52:18;;;;;;;22.50;13.93;;;5.80;74.00;;;;;;5033260;28;20487;-69
2021/03/01 10:54:45;;;;;;;27.10;16.35;;;5.90;74.70;;;;;;5033083;28;20021;-70
2021/03/01 10:57:11;;;;;;;18.45;12.80;;;6.20;73.80;;;;;;5032435;28;20493;-68
2021/03/01 10:59:38;;;;;;;16.63;11.38;;;6.30;73.20;;;;;;5050841;28;20048;-68
2021/03/01 11:02:04;;;;;;;20.60;13.82;;;6.30;72.90;;;;;;5052553;28;20032;-68
2021/03/01 11:04:30;;;;;;;18.67;10.90;;;6.50;72.70;;;;;;5055060;28;20104;-69
2021/03/01 11:06:55;;;;;;;17.60;11.65;;;6.40;72.10;;;;;;5054386;28;20056;-69
2021/03/01 11:09:22;;;;;;;20.02;12.88;;;6.60;72.50;;;;;;5061983;28;20061;-69
2021/03/01 11:11:49;;;;;;;20.42;12.02;;;6.80;72.20;;;;;;5056944;28;20033;-68
2021/03/01 11:14:18;;;;;;;19.58;13.05;;;7.00;72.00;;;;;;5074946;28;20025;-69
2021/03/01 11:16:44;;;;;;;27.52;17.25;;;7.10;69.60;;;;;;5073950;28;20082;-72
2021/03/01 11:19:11;;;;;;;30.55;18.27;;;7.20;69.30;;;;;;5073992;28;20024;-71
2021/03/01 11:21:38;;;;;;;35.30;20.48;;;7.10;69.10;;;;;;5054696;28;20470;-70
2021/03/01 11:24:04;;;;;;;16.13;11.40;;;7.30;69.00;;;;;;5070192;28;20017;-70
2021/03/01 11:26:30;;;;;;;18.42;10.93;;;7.50;67.60;;;;;;5044720;28;20032;-68
2021/03/01 11:28:56;;;;;;;28.23;18.67;;;7.60;66.60;;;;;;5065290;28;20037;-70
2021/03/01 11:31:22;;;;;;;16.33;10.95;;;7.50;67.30;;;;;;5045589;28;20017;-70
2021/03/01 11:33:48;;;;;;;21.35;13.13;;;7.70;68.00;;;;;;5049549;28;20124;-70
2021/03/01 11:36:14;;;;;;;17.02;11.13;;;8.00;66.60;;;;;;5041322;28;20115;-69
2021/03/01 11:38:39;;;;;;;13.35;9.77;;;8.00;65.40;;;;;;5054270;28;20413;-70
2021/03/01 11:41:05;;;;;;;13.30;10.07;;;7.50;66.00;;;;;;5058852;28;20023;-71
2021/03/01 11:43:32;;;;;;;14.00;10.63;;;7.20;66.70;;;;;;5052062;28;20389;-70
2021/03/01 11:45:58;;;;;;;15.90;10.60;;;6.70;68.40;;;;;;5054107;28;20051;-69
2021/03/01 11:48:24;;;;;;;15.32;10.10;;;6.40;69.80;;;;;;5053644;28;20463;-70
2021/03/01 11:50:50;;;;;;;15.35;10.73;;;6.20;70.30;;;;;;5054322;28;20022;-71
2021/03/01 11:53:16;;;;;;;29.30;16.17;;;6.50;70.20;;;;;;5054171;28;20017;-69
2021/03/01 11:55:46;;;;;;;15.38;10.25;;;6.70;69.80;;;;;;5053718;28;20025;-69
2021/03/01 11:58:12;;;;;;;14.98;11.05;;;7.00;67.90;;;;;;5058504;28;20020;-70
2021/03/01 12:00:41;;;;;;;16.05;11.15;;;6.30;69.50;;;;;;5069745;28;20411;-69
2021/03/01 12:03:10;;;;;;;16.88;11.30;;;6.40;70.10;;;;;;5054409;28;20025;-69
2021/03/01 12:05:38;;;;;;;16.55;9.50;;;6.90;68.90;;;;;;5053927;28;20089;-70
2021/03/01 12:08:04;;;;;;;15.77;10.50;;;7.20;67.80;;;;;;5036350;28;20051;-69
2021/03/01 12:10:31;;;;;;;13.65;9.27;;;7.30;66.00;;;;;;5055572;28;20068;-70
2021/03/01 12:12:59;;;;;;;15.32;10.88;;;7.10;66.60;;;;;;5054973;28;20022;-70
2021/03/01 12:15:24;;;;;;;16.60;10.27;;;7.10;67.30;;;;;;5037561;28;20047;-69
2021/03/01 12:17:50;;;;;;;14.73;10.05;;;7.30;66.50;;;;;;5037175;28;20470;-68
2021/03/01 12:20:16;;;;;;;15.38;10.23;;;7.50;66.00;;;;;;5063007;28;20112;-69
2021/03/01 12:22:41;;;;;;;18.35;11.15;;;7.70;65.10;;;;;;5067772;28;20474;-69
2021/03/01 12:25:10;;;;;;;15.32;9.75;;;7.90;64.80;;;;;;5093406;28;20119;-69
2021/03/01 12:27:35;;;;;;;26.80;13.68;;;7.90;64.70;;;;;;5072014;28;20050;-69
2021/03/01 12:30:02;;;;;;;42.45;22.13;;;8.10;64.60;;;;;;5081370;28;20028;-67
2021/03/01 12:32:28;;;;;;;51.13;27.98;;;8.10;63.90;;;;;;5064461;28;20111;-68
2021/03/01 12:34:55;;;;;;;28.60;16.13;;;8.20;63.70;;;;;;5076116;28;20527;-68
2021/03/01 12:37:20;;;;;;;21.48;13.75;;;8.20;63.50;;;;;;5053079;28;20104;-67
2021/03/01 12:39:46;;;;;;;22.92;13.60;;;8.40;63.50;;;;;;5063937;28;20102;-69
2021/03/01 12:42:11;;;;;;;23.95;13.57;;;8.40;63.50;;;;;;5073845;28;20402;-73
2021/03/01 12:44:39;;;;;;;35.63;17.90;;;8.60;62.70;;;;;;5073141;28;20078;-68
2021/03/01 12:47:04;;;;;;;28.13;16.33;;;8.60;63.00;;;;;;5066258;28;20430;-67